createdAt,value
2019-05-03T00:02:12.199Z,18.73
2019-05-03T00:04:44.565Z,16.83
2019-05-03T00:07:15.687Z,18.50
2019-05-03T00:09:48.230Z,16.97
2019-05-03T00:12:19.233Z,18.13
2019-05-03T00:14:52.008Z,19.70
2019-05-03T00:17:22.970Z,17.90
2019-05-03T00:19:53.616Z,19.40
2019-05-03T00:22:24.505Z,17.93
2019-05-03T00:25:05.289Z,16.60
2019-05-03T00:27:28.846Z,19.13
2019-05-03T00:29:59.803Z,17.63
2019-05-03T00:32:32.191Z,11.00
2019-05-03T00:35:12.043Z,6.93
2019-05-03T00:37:45.047Z,7.00
2019-05-03T00:40:18.163Z,5.80
2019-05-03T00:42:49.117Z,4.43
2019-05-03T00:45:19.671Z,4.33
2019-05-03T00:47:50.413Z,3.23
2019-05-03T00:50:22.630Z,4.40
2019-05-03T00:52:53.642Z,4.00
2019-05-03T00:55:26.150Z,3.53
2019-05-03T00:57:56.910Z,5.53
2019-05-03T01:00:28.569Z,5.47
2019-05-03T01:02:59.234Z,2.80
2019-05-03T01:05:32.974Z,3.93
2019-05-03T01:08:03.291Z,4.03
2019-05-03T01:10:34.006Z,4.10
2019-05-03T01:13:04.807Z,3.47
2019-05-03T01:15:42.939Z,3.70
2019-05-03T01:18:15.636Z,3.87
2019-05-03T01:20:48.859Z,3.67
2019-05-03T01:23:21.791Z,4.23
2019-05-03T01:25:52.154Z,4.77
2019-05-03T01:28:23.081Z,5.30
2019-05-03T01:30:53.696Z,3.40
2019-05-03T01:33:24.317Z,4.33
2019-05-03T01:35:55.068Z,4.43
2019-05-03T01:38:26.537Z,3.77
2019-05-03T01:40:57.423Z,3.23
2019-05-03T01:43:28.432Z,2.90
2019-05-03T01:45:59.156Z,3.50
2019-05-03T01:48:34.468Z,4.13
2019-05-03T01:51:25.168Z,3.40
2019-05-03T01:53:55.930Z,2.93
2019-05-03T01:56:26.945Z,2.27
2019-05-03T01:58:57.995Z,6.03
2019-05-03T02:01:36.139Z,2.80
2019-05-03T02:04:08.724Z,2.90
2019-05-03T02:06:42.462Z,4.03
2019-05-03T02:09:13.703Z,3.00
2019-05-03T02:11:44.232Z,4.63
2019-05-03T02:14:14.937Z,7.13
2019-05-03T02:16:45.472Z,4.50
2019-05-03T02:19:16.285Z,3.93
2019-05-03T02:21:47.055Z,4.23
2019-05-03T02:24:17.842Z,6.17
2019-05-03T02:26:48.566Z,5.87
2019-05-03T02:29:21.915Z,4.00
2019-05-03T02:31:53.488Z,4.93
2019-05-03T02:34:24.487Z,2.63
2019-05-03T02:36:55.146Z,3.93
2019-05-03T02:39:25.693Z,3.27
2019-05-03T02:42:02.950Z,4.40
2019-05-03T02:44:28.938Z,5.93
2019-05-03T02:47:10.357Z,3.73
2019-05-03T02:49:45.326Z,3.20
2019-05-03T02:52:36.748Z,5.00
2019-05-03T02:55:07.849Z,3.77
2019-05-03T02:57:38.964Z,3.70
2019-05-03T03:00:12.128Z,1.93
2019-05-03T03:02:45.425Z,2.93
2019-05-03T03:05:16.591Z,2.77
2019-05-03T03:07:50.893Z,3.40
2019-05-03T03:10:21.622Z,1.90
2019-05-03T03:12:55.354Z,2.33
2019-05-03T03:15:27.424Z,3.30
2019-05-03T03:18:01.000Z,2.07
2019-05-03T03:20:35.690Z,3.10
2019-05-03T03:23:09.603Z,2.93
2019-05-03T03:25:46.259Z,4.17
2019-05-03T03:28:20.165Z,3.97
2019-05-03T03:31:10.289Z,3.87
2019-05-03T03:33:40.951Z,4.57
2019-05-03T03:36:43.258Z,2.77
2019-05-03T03:38:45.884Z,3.43
2019-05-03T03:41:16.999Z,2.37
2019-05-03T03:43:50.804Z,3.90
2019-05-03T03:46:25.160Z,3.47
2019-05-03T03:48:56.786Z,3.90
2019-05-03T03:51:30.544Z,2.60
2019-05-03T03:54:05.955Z,3.43
2019-05-03T03:56:54.546Z,3.27
2019-05-03T03:59:10.931Z,3.33
2019-05-03T04:01:42.407Z,3.17
2019-05-03T04:04:15.872Z,2.23
2019-05-03T04:06:46.622Z,3.70
2019-05-03T04:09:18.212Z,5.70
2019-05-03T04:11:49.221Z,1.57
2019-05-03T04:14:21.879Z,2.07
2019-05-03T04:17:00.709Z,4.13
2019-05-03T04:19:36.177Z,3.57
2019-05-03T04:22:06.084Z,4.00
2019-05-03T04:24:36.984Z,3.57
2019-05-03T04:27:17.967Z,4.53
2019-05-03T04:29:41.134Z,4.60
2019-05-03T04:32:11.918Z,4.00
2019-05-03T04:34:45.058Z,4.50
2019-05-03T04:37:16.290Z,6.13
2019-05-03T04:39:47.371Z,6.13
2019-05-03T04:42:18.031Z,3.70
2019-05-03T04:44:48.630Z,5.60
2019-05-03T04:47:19.218Z,6.70
2019-05-03T04:49:49.889Z,4.57
2019-05-03T04:52:20.591Z,5.20
2019-05-03T04:54:56.723Z,4.17
2019-05-03T04:57:40.165Z,4.73
2019-05-03T05:00:02.013Z,8.87
2019-05-03T05:02:35.228Z,3.67
2019-05-03T05:05:07.016Z,3.57
2019-05-03T05:07:37.811Z,3.27
2019-05-03T05:10:08.605Z,3.90
2019-05-03T05:12:39.156Z,4.40
2019-05-03T05:15:09.929Z,3.83
2019-05-03T05:17:42.535Z,6.63
2019-05-03T05:20:14.971Z,3.73
2019-05-03T05:22:46.203Z,5.83
2019-05-03T05:25:18.602Z,5.23
2019-05-03T05:28:00.797Z,5.27
2019-05-03T05:30:35.178Z,3.70
2019-05-03T05:33:07.429Z,5.83
2019-05-03T05:35:38.352Z,4.70
2019-05-03T05:38:09.053Z,3.00
2019-05-03T05:40:40.222Z,6.73
2019-05-03T05:43:10.923Z,4.53
2019-05-03T05:45:41.719Z,5.67
2019-05-03T05:48:20.057Z,4.77
2019-05-03T05:50:50.790Z,3.97
2019-05-03T05:53:21.632Z,7.53
2019-05-03T05:56:07.341Z,5.93
2019-05-03T05:58:40.685Z,3.03
2019-05-03T06:01:18.637Z,5.53
2019-05-03T06:03:49.259Z,5.20
2019-05-03T06:06:21.444Z,4.27
2019-05-03T06:08:54.768Z,8.23
2019-05-03T06:11:30.595Z,7.37
2019-05-03T06:14:04.913Z,6.33
2019-05-03T06:16:39.630Z,4.43
2019-05-03T06:19:27.221Z,5.00
2019-05-03T06:22:12.282Z,4.30
2019-05-03T06:24:48.865Z,4.60
2019-05-03T06:27:30.480Z,6.67
2019-05-03T06:30:04.606Z,4.83
2019-05-03T06:32:40.393Z,4.13
2019-05-03T06:35:12.270Z,2.83
2019-05-03T06:37:45.901Z,7.67
2019-05-03T06:40:18.715Z,5.50
2019-05-03T06:42:54.516Z,2.97
2019-05-03T06:45:25.095Z,5.43
2019-05-03T06:47:55.936Z,4.67
2019-05-03T06:50:28.945Z,4.07
2019-05-03T06:52:59.942Z,6.77
2019-05-03T06:55:31.516Z,6.40
2019-05-03T06:58:02.081Z,4.43
2019-05-03T07:00:46.235Z,4.20
2019-05-03T07:03:18.617Z,7.73
2019-05-03T07:05:51.037Z,4.57
2019-05-03T07:08:40.032Z,3.97
2019-05-03T07:11:10.919Z,7.47
2019-05-03T07:13:41.619Z,6.20
2019-05-03T07:16:12.512Z,4.10
2019-05-03T07:18:45.507Z,12.23
2019-05-03T07:21:16.014Z,6.83
2019-05-03T07:23:46.752Z,7.37
2019-05-03T07:26:17.735Z,5.73
2019-05-03T07:28:50.176Z,8.57
2019-05-03T07:31:20.918Z,6.80
2019-05-03T07:33:51.770Z,7.43
2019-05-03T07:36:25.281Z,7.97
2019-05-03T07:38:55.651Z,5.93
2019-05-03T07:41:27.265Z,6.73
2019-05-03T07:43:58.058Z,7.27
2019-05-03T07:46:31.617Z,7.20
2019-05-03T07:49:02.021Z,4.20
2019-05-03T07:51:34.845Z,7.53
2019-05-03T07:54:06.034Z,6.50
2019-05-03T07:56:44.488Z,6.80
2019-05-03T07:59:15.086Z,8.13
2019-05-03T08:01:47.304Z,9.57
2019-05-03T08:04:20.043Z,7.60
2019-05-03T08:06:51.097Z,4.07
2019-05-03T08:09:21.710Z,5.90
2019-05-03T08:11:54.731Z,4.43
2019-05-03T08:14:26.725Z,8.40
2019-05-03T08:16:57.452Z,5.10
2019-05-03T08:19:28.017Z,4.87
2019-05-03T08:21:58.971Z,5.37
2019-05-03T08:24:31.128Z,8.03
2019-05-03T08:27:02.020Z,4.40
2019-05-03T08:29:35.010Z,5.97
2019-05-03T08:32:24.547Z,5.27
2019-05-03T08:35:12.376Z,6.80
2019-05-03T08:37:47.271Z,3.80
2019-05-03T08:40:18.530Z,7.40
2019-05-03T08:42:49.531Z,3.37
2019-05-03T08:45:20.443Z,5.13
2019-05-03T08:47:52.612Z,6.03
2019-05-03T08:50:25.517Z,7.70
2019-05-03T08:52:57.278Z,7.17
2019-05-03T08:55:28.046Z,8.40
2019-05-03T08:57:58.765Z,3.53
2019-05-03T09:00:31.295Z,5.37
2019-05-03T09:03:02.705Z,18.17
2019-05-03T09:05:35.805Z,4.40
2019-05-03T09:08:06.794Z,4.80
2019-05-03T09:10:41.670Z,5.78
2019-05-03T09:13:20.504Z,5.83
2019-05-03T09:15:55.371Z,7.40
2019-05-03T09:18:27.397Z,5.67
2019-05-03T09:20:58.906Z,6.10
2019-05-03T09:23:29.740Z,3.20
2019-05-03T09:26:00.477Z,6.57
2019-05-03T09:28:31.157Z,4.30
2019-05-03T09:31:01.775Z,4.27
2019-05-03T09:33:32.956Z,5.03
2019-05-03T09:36:05.375Z,5.20
2019-05-03T09:38:36.125Z,8.13
2019-05-03T09:41:07.009Z,8.53
2019-05-03T09:43:37.852Z,3.60
2019-05-03T09:46:08.540Z,5.17
2019-05-03T09:48:39.484Z,6.03
2019-05-03T09:51:10.242Z,6.90
2019-05-03T09:53:44.635Z,4.20
2019-05-03T09:56:21.750Z,2.80
2019-05-03T09:58:58.454Z,5.93
2019-05-03T10:01:29.227Z,6.57
2019-05-03T10:04:00.171Z,4.40
2019-05-03T10:06:31.082Z,3.53
2019-05-03T10:09:01.910Z,6.70
2019-05-03T10:11:35.133Z,8.93
2019-05-03T10:14:06.272Z,9.17
2019-05-03T10:16:39.897Z,4.90
2019-05-03T10:19:13.712Z,6.20
2019-05-03T10:21:45.594Z,4.80
2019-05-03T10:24:16.314Z,6.07
2019-05-03T10:26:47.083Z,4.20
2019-05-03T10:29:17.869Z,7.97
2019-05-03T10:31:54.565Z,4.67
2019-05-03T10:34:26.086Z,4.90
2019-05-03T10:36:57.822Z,7.77
2019-05-03T10:39:28.722Z,5.63
2019-05-03T10:41:59.351Z,5.30
2019-05-03T10:44:31.085Z,5.27
2019-05-03T10:47:05.530Z,5.27
2019-05-03T10:49:36.505Z,6.70
2019-05-03T10:52:08.795Z,4.13
2019-05-03T10:54:39.602Z,3.93
2019-05-03T10:57:11.954Z,6.70
2019-05-03T10:59:44.756Z,4.67
2019-05-03T11:02:16.675Z,4.63
2019-05-03T11:04:47.445Z,6.77
2019-05-03T11:07:19.212Z,4.43
2019-05-03T11:09:52.589Z,2.20
2019-05-03T11:12:25.476Z,4.53
2019-05-03T11:14:56.143Z,2.97
2019-05-03T11:17:26.873Z,5.97
2019-05-03T11:19:57.803Z,4.27
2019-05-03T11:22:28.647Z,4.53
2019-05-03T11:24:59.518Z,3.67
2019-05-03T11:27:31.795Z,2.77
2019-05-03T11:30:02.608Z,6.70
2019-05-03T11:32:42.221Z,5.70
2019-05-03T11:35:20.839Z,4.07
2019-05-03T11:37:53.264Z,5.10
2019-05-03T11:40:25.181Z,4.23
2019-05-03T11:42:57.607Z,7.00
2019-05-03T11:45:28.456Z,10.40
2019-05-03T11:47:59.253Z,9.20
2019-05-03T11:50:29.936Z,4.20
2019-05-03T11:53:01.482Z,4.90
2019-05-03T11:55:32.245Z,6.17
2019-05-03T11:58:05.662Z,5.37
2019-05-03T12:00:39.077Z,6.20
2019-05-03T12:03:11.413Z,7.90
2019-05-03T12:05:44.186Z,5.03
2019-05-03T12:08:15.005Z,3.63
2019-05-03T12:10:55.287Z,3.97
2019-05-03T12:13:29.118Z,4.57
2019-05-03T12:16:01.130Z,4.13
2019-05-03T12:18:48.047Z,3.53
2019-05-03T12:21:08.262Z,6.13
2019-05-03T12:23:39.001Z,3.07
2019-05-03T12:26:13.656Z,4.73
2019-05-03T12:28:44.979Z,4.80
2019-05-03T12:31:29.415Z,7.37
2019-05-03T12:33:48.616Z,4.87
2019-05-03T12:36:19.324Z,4.20
2019-05-03T12:38:51.738Z,2.17
2019-05-03T12:41:22.481Z,3.60
2019-05-03T12:43:55.175Z,4.20
2019-05-03T12:46:26.199Z,4.20
2019-05-03T12:48:58.260Z,5.67
2019-05-03T12:51:30.065Z,5.83
2019-05-03T12:54:00.977Z,3.30
2019-05-03T12:56:33.020Z,3.13
2019-05-03T12:59:12.286Z,4.07
2019-05-03T13:02:00.959Z,4.57
2019-05-03T13:04:36.562Z,4.50
2019-05-03T13:07:11.571Z,3.77
2019-05-03T13:09:42.228Z,7.50
2019-05-03T13:12:14.798Z,2.87
2019-05-03T13:14:45.579Z,4.27
2019-05-03T13:17:18.516Z,2.13
2019-05-03T13:19:50.156Z,7.17
2019-05-03T13:22:20.726Z,7.23
2019-05-03T13:24:51.716Z,5.93
2019-05-03T13:27:22.751Z,6.63
2019-05-03T13:29:55.602Z,3.30
2019-05-03T13:32:26.350Z,5.53
2019-05-03T13:34:56.994Z,5.33
2019-05-03T13:37:28.758Z,6.23
2019-05-03T13:39:59.613Z,4.33
2019-05-03T13:42:30.376Z,3.57
2019-05-03T13:45:01.229Z,5.77
2019-05-03T13:47:32.335Z,3.87
2019-05-03T13:50:04.770Z,3.40
2019-05-03T13:52:35.899Z,5.73
2019-05-03T13:55:07.878Z,3.93
2019-05-03T13:57:38.525Z,4.53
2019-05-03T14:00:09.411Z,3.13
2019-05-03T14:02:40.460Z,3.60
2019-05-03T14:05:11.855Z,3.97
2019-05-03T14:07:44.561Z,4.10
2019-05-03T14:10:15.470Z,6.73
2019-05-03T14:12:46.492Z,4.37
2019-05-03T14:15:17.248Z,6.13
2019-05-03T14:17:48.526Z,5.93
2019-05-03T14:20:26.195Z,2.93
2019-05-03T14:22:57.200Z,4.33
2019-05-03T14:25:29.830Z,5.67
2019-05-03T14:28:00.880Z,5.60
2019-05-03T14:30:31.685Z,6.47
2019-05-03T14:33:02.331Z,3.90
2019-05-03T14:35:34.654Z,6.80
2019-05-03T14:38:06.439Z,4.67
2019-05-03T14:40:37.089Z,3.87
2019-05-03T14:43:08.090Z,5.30
2019-05-03T14:45:38.865Z,4.30
2019-05-03T14:48:09.631Z,6.57
2019-05-03T14:50:42.325Z,6.03
2019-05-03T14:53:14.792Z,5.97
2019-05-03T14:55:51.631Z,5.30
2019-05-03T14:58:31.025Z,4.07
2019-05-03T15:01:04.842Z,7.50
2019-05-03T15:03:37.028Z,6.73
2019-05-03T15:06:07.927Z,9.60
2019-05-03T15:08:39.062Z,5.87
2019-05-03T15:11:10.472Z,9.20
2019-05-03T15:13:42.043Z,7.23
2019-05-03T15:16:14.410Z,5.10
2019-05-03T15:18:45.471Z,3.30
2019-05-03T15:21:16.110Z,5.60
2019-05-03T15:23:46.936Z,3.97
2019-05-03T15:26:18.193Z,4.53
2019-05-03T15:28:49.140Z,4.40
2019-05-03T15:31:20.159Z,10.50
2019-05-03T15:33:51.114Z,3.33
2019-05-03T15:36:22.092Z,3.73
2019-05-03T15:38:55.097Z,4.07
2019-05-03T15:41:25.637Z,7.90
2019-05-03T15:43:58.901Z,8.33
2019-05-03T15:46:31.118Z,5.07
2019-05-03T15:49:04.582Z,5.03
2019-05-03T15:51:35.598Z,5.13
2019-05-03T15:54:06.549Z,6.70
2019-05-03T15:56:37.787Z,6.10
2019-05-03T15:59:08.392Z,4.77
2019-05-03T16:01:39.273Z,3.43
2019-05-03T16:04:09.907Z,8.17
2019-05-03T16:06:40.607Z,6.20
2019-05-03T16:09:11.320Z,7.97
2019-05-03T16:11:42.225Z,3.40
2019-05-03T16:14:15.175Z,4.00
2019-05-03T16:16:47.078Z,5.13
2019-05-03T16:19:17.882Z,5.73
2019-05-03T16:21:49.805Z,6.10
2019-05-03T16:24:20.725Z,4.47
2019-05-03T16:27:10.187Z,7.73
2019-05-03T16:29:41.323Z,4.77
2019-05-03T16:32:12.314Z,3.97
2019-05-03T16:34:44.643Z,5.40
2019-05-03T16:37:15.737Z,5.93
2019-05-03T16:39:46.654Z,5.00
2019-05-03T16:42:18.676Z,5.73
2019-05-03T16:44:50.313Z,11.63
2019-05-03T16:47:22.198Z,7.70
2019-05-03T16:49:54.165Z,6.67
2019-05-03T16:52:25.749Z,6.30
2019-05-03T16:54:57.074Z,6.37
2019-05-03T16:57:27.719Z,5.17
2019-05-03T17:00:01.539Z,5.73
2019-05-03T17:02:35.067Z,7.77
2019-05-03T17:05:08.751Z,6.73
2019-05-03T17:07:41.357Z,5.67
2019-05-03T17:10:15.345Z,9.33
2019-05-03T17:12:46.191Z,7.07
2019-05-03T17:15:17.283Z,7.87
2019-05-03T17:17:48.119Z,8.70
2019-05-03T17:20:19.652Z,4.83
2019-05-03T17:22:51.877Z,5.27
2019-05-03T17:25:24.470Z,2.73
2019-05-03T17:27:56.478Z,3.93
2019-05-03T17:30:33.645Z,3.67
2019-05-03T17:33:00.713Z,3.20
2019-05-03T17:35:31.876Z,12.97
2019-05-03T17:38:05.165Z,4.13
2019-05-03T17:40:49.688Z,3.50
2019-05-03T17:43:38.011Z,8.40
2019-05-03T17:46:10.550Z,5.87
2019-05-03T17:48:45.288Z,3.63
2019-05-03T17:51:35.083Z,4.93
2019-05-03T17:54:07.905Z,5.27
2019-05-03T17:56:44.483Z,6.07
2019-05-03T17:59:18.143Z,6.90
2019-05-03T18:02:07.630Z,4.87
2019-05-03T18:04:40.410Z,4.03
2019-05-03T18:07:30.366Z,5.53
2019-05-03T18:10:02.070Z,8.60
2019-05-03T18:12:35.034Z,6.90
2019-05-03T18:15:07.577Z,8.07
2019-05-03T18:17:39.007Z,8.23
2019-05-03T18:20:10.212Z,7.83
2019-05-03T18:22:41.754Z,8.77
2019-05-03T18:25:14.254Z,9.33
2019-05-03T18:27:45.589Z,7.90
2019-05-03T18:30:17.103Z,11.33
2019-05-03T18:32:48.253Z,11.67
2019-05-03T18:35:19.379Z,16.67
2019-05-03T18:37:52.092Z,22.77
2019-05-03T18:40:24.798Z,19.47
2019-05-03T18:42:57.472Z,17.50
2019-05-03T18:45:34.752Z,21.90
2019-05-03T18:48:05.443Z,26.50
2019-05-03T18:50:36.322Z,22.90
2019-05-03T18:53:07.493Z,17.87
2019-05-03T18:55:38.283Z,20.03
2019-05-03T18:58:10.647Z,23.87
2019-05-03T19:00:41.790Z,23.33
2019-05-03T19:03:14.366Z,12.10
2019-05-03T19:05:50.143Z,19.27
2019-05-03T19:08:38.071Z,12.63
2019-05-03T19:11:15.110Z,18.63
2019-05-03T19:13:48.953Z,12.17
2019-05-03T19:16:37.509Z,15.57
2019-05-03T19:19:10.531Z,9.37
2019-05-03T19:21:41.588Z,14.70
2019-05-03T19:24:12.649Z,8.63
2019-05-03T19:26:45.062Z,9.07
2019-05-03T19:29:17.927Z,11.13
2019-05-03T19:31:50.498Z,10.80
2019-05-03T19:34:21.700Z,8.83
2019-05-03T19:36:54.597Z,10.30
2019-05-03T19:39:25.370Z,11.10
2019-05-03T19:41:56.615Z,9.93
2019-05-03T19:44:27.637Z,7.93
2019-05-03T19:46:58.518Z,8.67
2019-05-03T19:49:29.503Z,11.33
2019-05-03T19:52:02.039Z,12.53
2019-05-03T19:54:36.103Z,11.63
2019-05-03T19:57:06.826Z,12.77
2019-05-03T19:59:56.727Z,15.57
2019-05-03T20:02:31.820Z,9.47
2019-05-03T20:05:06.945Z,14.70
2019-05-03T20:07:39.335Z,13.63
2019-05-03T20:10:10.495Z,13.13
2019-05-03T20:12:41.620Z,14.23
2019-05-03T20:15:14.486Z,10.57
2019-05-03T20:17:56.516Z,13.57
2019-05-03T20:20:17.865Z,8.60
2019-05-03T20:22:48.714Z,12.00
2019-05-03T20:25:20.736Z,13.93
2019-05-03T20:27:51.599Z,10.23
2019-05-03T20:30:22.286Z,16.20
2019-05-03T20:32:53.065Z,9.70
2019-05-03T20:35:25.150Z,11.83
2019-05-03T20:37:56.843Z,11.07
2019-05-03T20:40:27.928Z,14.57
2019-05-03T20:43:00.740Z,10.67
2019-05-03T20:45:36.122Z,11.17
2019-05-03T20:48:08.941Z,11.00
2019-05-03T20:50:39.851Z,14.97
2019-05-03T20:53:10.937Z,11.87
2019-05-03T20:55:41.720Z,16.27
2019-05-03T20:58:14.461Z,8.57
2019-05-03T21:00:47.029Z,11.73
2019-05-03T21:03:17.776Z,14.13
2019-05-03T21:05:48.322Z,13.20
2019-05-03T21:08:19.257Z,9.17
2019-05-03T21:10:49.990Z,9.53
2019-05-03T21:13:22.003Z,11.07
2019-05-03T21:16:06.527Z,9.80
2019-05-03T21:18:55.427Z,8.87
2019-05-03T21:21:28.222Z,7.63
2019-05-03T21:24:00.892Z,10.53
2019-05-03T21:26:31.716Z,13.83
2019-05-03T21:29:04.626Z,11.33
2019-05-03T21:31:35.332Z,8.33
2019-05-03T21:34:06.118Z,8.50
2019-05-03T21:36:36.822Z,9.60
2019-05-03T21:39:07.866Z,10.70
2019-05-03T21:41:38.811Z,11.07
2019-05-03T21:44:11.020Z,7.20
2019-05-03T21:46:45.015Z,7.60
2019-05-03T21:49:20.660Z,14.17
2019-05-03T21:51:53.618Z,7.90
2019-05-03T21:54:24.668Z,7.60
2019-05-03T21:56:57.978Z,8.10
2019-05-03T21:59:28.087Z,8.50
2019-05-03T22:01:58.747Z,10.57
2019-05-03T22:04:30.811Z,7.23
2019-05-03T22:07:01.584Z,13.70
2019-05-03T22:09:34.808Z,9.20
2019-05-03T22:12:05.890Z,11.30
2019-05-03T22:14:45.515Z,9.10
2019-05-03T22:17:17.733Z,10.37
2019-05-03T22:19:50.088Z,5.37
2019-05-03T22:22:31.551Z,10.93
2019-05-03T22:25:06.885Z,7.87
2019-05-03T22:27:39.205Z,12.53
2019-05-03T22:30:09.934Z,11.13
2019-05-03T22:32:40.625Z,12.03
2019-05-03T22:35:11.409Z,10.97
2019-05-03T22:37:44.539Z,6.97
2019-05-03T22:40:14.815Z,10.07
2019-05-03T22:42:47.965Z,15.73
2019-05-03T22:45:18.797Z,14.00
2019-05-03T22:47:49.456Z,12.73
2019-05-03T22:50:20.245Z,8.33
2019-05-03T22:52:50.876Z,7.83
2019-05-03T22:55:21.610Z,12.90
2019-05-03T22:57:52.348Z,10.73
2019-05-03T23:00:25.217Z,12.57
2019-05-03T23:02:56.533Z,6.47
2019-05-03T23:05:30.332Z,11.37
2019-05-03T23:08:01.125Z,10.73
2019-05-03T23:10:32.163Z,9.70
2019-05-03T23:13:04.939Z,8.97
2019-05-03T23:15:37.524Z,11.80
2019-05-03T23:18:08.526Z,9.77
2019-05-03T23:20:40.741Z,9.13
2019-05-03T23:23:14.460Z,10.87
2019-05-03T23:25:45.745Z,10.20
2019-05-03T23:28:16.568Z,11.90
2019-05-03T23:30:47.366Z,8.83
2019-05-03T23:33:18.280Z,9.77
2019-05-03T23:35:49.639Z,11.53
2019-05-03T23:38:20.584Z,10.27
2019-05-03T23:40:51.465Z,11.93
2019-05-03T23:43:22.220Z,8.63
2019-05-03T23:45:54.588Z,13.07
2019-05-03T23:48:26.127Z,12.37
2019-05-03T23:50:56.935Z,10.23
2019-05-03T23:53:27.572Z,6.73
2019-05-03T23:56:04.408Z,5.23
2019-05-03T23:58:35.259Z,11.63
